Flight Track Log - Related Links

Times and Time Zones

All times are in EDT time to prevent confusion due to time zone crossing. See the UAL1177 flight status page for this flight to view local times or setup timezone preferences in your user account.

Time Position Orientation Groundspeed Altitude Reporting Facility
EDT Latitude Longitude Course Direction KTS MPH feet Rate Location/Type
Fri 06:51:58 PM 32.8650 -97.0560 194° South 183 211 1,800  Level FlightAware ADS-B
Fri 06:52:26 PM 32.8400 -97.0640 195° South 223 257 2,400 1,535 Climbing FlightAware ADS-B
Fri 06:52:41 PM 32.8240 -97.0690 195° South 235 270 2,900 2,791 Climbing FlightAware ADS-B
Fri 06:53:09 PM 32.7920 -97.0790 195° South 246 283 4,400 3,115 Climbing FlightAware ADS-B
Fri 06:53:33 PM 32.7650 -97.0870 194° South 250 288 5,600 2,700 Climbing FlightAware ADS-B
Fri 06:53:49 PM 32.7500 -97.1010 218° Southwest 267 307 6,200 2,200 Climbing FlightAware ADS-B
Fri 06:54:03 PM 32.7430 -97.1200 246° West 287 330 6,700 2,864 Climbing FlightAware ADS-B
Fri 06:54:33 PM 32.7450 -97.1690 273° West 293 337 8,300 3,000 Climbing FlightAware ADS-B
Fri 06:54:45 PM 32.7500 -97.1880 287° West 300 345 8,800 2,538 Climbing FlightAware ADS-B
Fri 06:54:59 PM 32.7630 -97.2050 312° West 303 349 9,400 1,935 Climbing FlightAware ADS-B
Fri 06:55:16 PM 32.7840 -97.2170 334° Northwest 306 352 9,800 682 Climbing FlightAware ADS-B
Fri 06:55:43 PM 32.8210 -97.2310 342° North 308 354 9,900 627 Climbing FlightAware ADS-B
Fri 06:56:23 PM 32.8720 -97.2550 338° Northwest 309 356 10,500 1,929 Climbing FlightAware ADS-B
Fri 06:57:07 PM 32.9250 -97.3000 325° Northwest 315 362 12,600 2,612 Climbing FlightAware ADS-B
Fri 06:57:48 PM 32.9740 -97.3410 325° Northwest 325 374 14,200 2,444 Climbing FlightAware ADS-B
Fri 06:58:28 PM 33.0240 -97.3830 325° Northwest 332 382 15,900 2,143 Climbing FlightAware ADS-B
Fri 06:59:12 PM 33.0790 -97.4300 324° Northwest 337 388 17,200 1,357 Climbing FlightAware ADS-B
Fri 06:59:52 PM 33.1330 -97.4780 323° Northwest 374 430 17,800 842 Climbing FlightAware ADS-B
Fri 07:00:09 PM 33.1490 -97.5080 303° West 387 445 18,000 353 Climbing FlightAware ADS-B
Fri 07:00:43 PM 33.1650 -97.5680 288° West 392 451 18,100 2,023 Climbing FlightAware ADS-B
Fri 07:01:35 PM 33.1940 -97.6920 286° West 408 470 20,900 2,800 Climbing FlightAware ADS-B
Fri 07:02:13 PM 33.2140 -97.7720 287° West 405 466 22,300 1,747 Climbing FlightAware ADS-B
Fri 07:02:54 PM 33.2360 -97.8590 287° West 414 476 23,200 1,482 Climbing FlightAware ADS-B
Fri 07:03:38 PM 33.2600 -97.9550 287° West 420 483 24,400 1,636 Climbing FlightAware ADS-B
Fri 07:04:22 PM 33.2850 -98.0550 287° West 421 484 25,600 1,256 Climbing FlightAware ADS-B
Fri 07:05:04 PM 33.3080 -98.1490 286° West 436 502 26,200 565 Climbing FlightAware ADS-B
Fri 07:05:47 PM 33.3310 -98.2440 286° West 443 510 26,400 150 Climbing FlightAware ADS-B
Fri 07:06:24 PM 33.3480 -98.3180 285° West 443 510 26,400 1,389 Level FlightAware ADS-B
Fri 07:07:22 PM 33.3850 -98.4660 287° West 450 518 28,600 1,389 Climbing FlightAware ADS-B
Fri 07:07:59 PM 33.4030 -98.5410 286° West 450 518 28,600  Level FlightAware ADS-B
Fri 07:08:47 PM 33.4260 -98.6390 286° West 450 518 28,600  Level FlightAware ADS-B
Fri 07:09:23 PM 33.4440 -98.7130 286° West 450 518 28,600 818 Level FlightAware ADS-B
Fri 07:10:37 PM 33.4942 -98.9206 286° West 435 501 30,100 1,254 Climbing Fort Worth Center
Fri 07:11:37 PM 33.5300 -99.0581 287° West 435 501 31,400 1,350 Climbing Fort Worth Center
Fri 07:12:37 PM 33.5594 -99.1958 284° West 435 501 32,800 1,450 Climbing Fort Worth Center
Fri 07:13:37 PM 33.5950 -99.3311 288° West 435 501 34,300 1,100 Climbing Fort Worth Center
Fri 07:14:37 PM 33.6347 -99.4642 290° West 429 494 35,000 700 Climbing Fort Worth Center
Fri 07:15:37 PM 33.7250 -99.5661 317° Northwest 427 491 35,700 420 Climbing Fort Worth Center
Fri 07:17:00 PM 33.8353 -99.6889 317° Northwest 437 503 36,000 125 Climbing Fort Worth Center
Fri 07:18:01 PM 33.9458 -99.8069 318° Northwest 442 509 36,000  Level Fort Worth Center
Fri 07:19:01 PM 34.0336 -99.9097 316° Northwest 442 509 36,000  Level Fort Worth Center
Fri 07:20:01 PM 34.1214 -100.0100 317° Northwest 442 509 36,000  Level Fort Worth Center
Fri 07:22:13 PM 34.3175 -100.2272 318° Northwest 435 501 36,000  Level Albuquerque Center
Fri 07:23:14 PM 34.4028 -100.3269 316° Northwest 432 497 36,000  Level Albuquerque Center
Fri 07:24:16 PM 34.4700 -100.4478 304° West 433 498 36,000  Level Albuquerque Center
Fri 07:25:17 PM 34.5417 -100.5639 307° West 433 498 36,000  Level Albuquerque Center
Fri 07:26:19 PM 34.6136 -100.6811 307° West 433 498 36,000  Level Albuquerque Center
Fri 07:27:20 PM 34.6861 -100.7972 307° West 433 498 36,000  Level Albuquerque Center
Fri 07:28:22 PM 34.7897 -100.8828 326° Northwest 456 525 36,000  Level Albuquerque Center
Fri 07:29:23 PM 34.9003 -100.9564 331° Northwest 456 525 36,000  Level Albuquerque Center
Fri 07:30:25 PM 35.0328 -101.0458 331° Northwest 456 525 36,000  Level Albuquerque Center
Fri 07:31:26 PM 35.1442 -101.1203 331° Northwest 458 527 36,000  Level Albuquerque Center
Fri 07:32:27 PM 35.2556 -101.1956 331° Northwest 460 529 36,000  Level Albuquerque Center
Fri 07:33:29 PM 35.3664 -101.2700 331° Northwest 460 529 36,000  Level Albuquerque Center
Fri 07:34:30 PM 35.4911 -101.3558 331° Northwest 464 534 36,000  Level Albuquerque Center
Fri 07:35:32 PM 35.5889 -101.4225 331° Northwest 462 532 36,000  Level Albuquerque Center
Fri 07:36:33 PM 35.7222 -101.5144 331° Northwest 461 531 36,000  Level Albuquerque Center
Fri 07:37:35 PM 35.8339 -101.5914 331° Northwest 462 532 36,000  Level Albuquerque Center
Fri 07:38:36 PM 35.9456 -101.6669 331° Northwest 461 531 36,000  Level Albuquerque Center
Fri 07:39:38 PM 36.0558 -101.7436 331° Northwest 458 527 36,000  Level Albuquerque Center
Fri 07:40:39 PM 36.1667 -101.8233 330° Northwest 461 531 36,000  Level Albuquerque Center
Fri 07:41:40 PM 36.2789 -101.9000 331° Northwest 461 531 36,000  Level Albuquerque Center
Fri 07:42:42 PM 36.3892 -101.9778 330° Northwest 459 528 36,000  Level Albuquerque Center
Fri 07:43:43 PM 36.5208 -102.0706 330° Northwest 455 524 36,000  Level Albuquerque Center
Fri 07:44:44 PM 36.6322 -102.1483 331° Northwest 451 519 36,000  Level Albuquerque Center
Fri 07:45:46 PM 36.7383 -102.2217 331° Northwest 449 517 36,000  Level Albuquerque Center
Fri 07:51:49 PM 37.3913 -102.6880 331° Northwest 434 499 36,000  Level FlightAware ADS-B
Fri 07:52:19 PM 37.4441 -102.7260 330° Northwest 433 498 36,000 -105 Level FlightAware ADS-B
Fri 07:52:46 PM 37.4907 -102.7590 331° Northwest 433 498 35,900 -333 Descending FlightAware ADS-B
Fri 07:52:55 PM 37.5060 -102.7680 335° Northwest 436 502 35,800 -800 Descending FlightAware ADS-B
Fri 07:53:01 PM 37.5172 -102.7750 334° Northwest 438 504 35,700 -1,200 Descending FlightAware ADS-B
Fri 07:53:10 PM 37.5356 -102.7830 341° North 440 506 35,500 -900 Descending FlightAware ADS-B
Fri 07:53:41 PM 37.5962 -102.8040 345° North 455 524 35,100 -885 Descending FlightAware ADS-B
Fri 07:54:11 PM 37.6574 -102.8230 346° North 450 518 34,600 -1,000 Descending FlightAware ADS-B
Fri 07:54:41 PM 37.7184 -102.8430 345° North 446 513 34,100 -600 Descending FlightAware ADS-B
Fri 07:55:11 PM 37.7786 -102.8610 347° North 445 512 34,000 -100 Descending FlightAware ADS-B
Fri 07:55:41 PM 37.8389 -102.8800 346° North 448 516 34,000 -295 Level FlightAware ADS-B
Fri 07:56:12 PM 37.9014 -102.9000 346° North 450 518 33,700 -787 Descending FlightAware ADS-B
Fri 07:56:42 PM 37.9620 -102.9190 346° North 450 518 33,200 -1,000 Descending FlightAware ADS-B
Fri 07:57:12 PM 38.0230 -102.9390 346° North 455 524 32,700 -984 Descending FlightAware ADS-B
Fri 07:57:43 PM 38.0861 -102.9590 346° North 456 525 32,200 -885 Descending FlightAware ADS-B
Fri 07:58:13 PM 38.1486 -102.9780 347° North 458 527 31,800 -885 Descending FlightAware ADS-B
Fri 07:58:44 PM 38.2113 -102.9980 346° North 463 533 31,300 -984 Descending FlightAware ADS-B
Fri 07:59:14 PM 38.2743 -103.0190 345° North 465 535 30,800 -1,000 Descending FlightAware ADS-B
Fri 07:59:44 PM 38.3374 -103.0390 346° North 464 534 30,300 -787 Descending FlightAware ADS-B
Fri 08:00:15 PM 38.4010 -103.0590 346° North 463 533 30,000 -290 Descending FlightAware ADS-B
Fri 08:00:46 PM 38.4651 -103.0800 346° North 460 529 30,000  Level FlightAware ADS-B
Fri 08:01:00 PM 38.4945 -103.0890 347° North 459 528 30,000  Level FlightAware ADS-B
Fri 08:01:05 PM 38.5046 -103.0930 343° North 457 526 30,000  Level FlightAware ADS-B
Fri 08:01:11 PM 38.5163 -103.0990 338° Northwest 454 522 30,000  Level FlightAware ADS-B
Fri 08:01:19 PM 38.5320 -103.1090 334° Northwest 451 519 30,000  Level FlightAware ADS-B
Fri 08:01:28 PM 38.5465 -103.1210 327° Northwest 448 516 30,000  Level FlightAware ADS-B
Fri 08:01:36 PM 38.5602 -103.1350 321° Northwest 444 511 30,000  Level FlightAware ADS-B
Fri 08:01:43 PM 38.5710 -103.1480 317° Northwest 441 507 30,000  Level FlightAware ADS-B
Fri 08:01:51 PM 38.5811 -103.1620 313° West 440 506 30,000  Level FlightAware ADS-B
Fri 08:02:22 PM 38.6249 -103.2230 313° West 442 509 30,000  Level FlightAware ADS-B
Fri 08:02:53 PM 38.6673 -103.2820 313° West 442 509 30,000  Level FlightAware ADS-B
Fri 08:03:23 PM 38.7089 -103.3400 313° West 443 510 30,000 -100 Level FlightAware ADS-B
Fri 08:03:53 PM 38.7505 -103.3990 312° West 447 514 29,900 -1,574 Descending FlightAware ADS-B
Fri 08:04:24 PM 38.7937 -103.4600 312° West 450 518 28,400 -2,066 Descending FlightAware ADS-B
Fri 08:04:54 PM 38.8350 -103.5170 313° West 430 495 27,800 -1,180 Descending FlightAware ADS-B
Fri 08:05:25 PM 38.8746 -103.5730 312° West 413 475 27,200 -1,475 Descending FlightAware ADS-B
Fri 08:05:55 PM 38.9128 -103.6280 312° West 404 465 26,300 -1,967 Descending FlightAware ADS-B
Fri 08:06:26 PM 38.9508 -103.6820 312° West 396 456 25,200 -2,066 Descending FlightAware ADS-B
Fri 08:06:56 PM 38.9871 -103.7340 312° West 390 449 24,200 -2,000 Descending FlightAware ADS-B
Fri 08:07:26 PM 39.0233 -103.7850 312° West 387 445 23,200 -2,066 Descending FlightAware ADS-B
Fri 08:07:57 PM 39.0599 -103.8370 312° West 380 437 22,100 -1,967 Descending FlightAware ADS-B
Fri 08:08:27 PM 39.0949 -103.8870 312° West 372 428 21,200 -1,900 Descending FlightAware ADS-B
Fri 08:08:57 PM 39.1292 -103.9360 312° West 366 421 20,200 -1,900 Descending FlightAware ADS-B
Fri 08:09:27 PM 39.1627 -103.9840 312° West 360 414 19,300 -1,900 Descending FlightAware ADS-B
Fri 08:09:57 PM 39.1962 -104.0320 312° West 362 417 18,300 -1,600 Descending FlightAware ADS-B
Fri 08:10:27 PM 39.2295 -104.0800 312° West 359 413 17,700 -875 Descending FlightAware ADS-B
Fri 08:10:45 PM 39.2489 -104.1090 311° West 349 402 17,600 -480 Descending FlightAware ADS-B
Fri 08:10:52 PM 39.2551 -104.1200 306° West 342 394 17,500 -857 Descending FlightAware ADS-B
Fri 08:10:59 PM 39.2608 -104.1330 300° West 335 386 17,400 -923 Descending FlightAware ADS-B
Fri 08:11:05 PM 39.2647 -104.1450 293° West 333 383 17,300 -1,667 Descending FlightAware ADS-B
Fri 08:11:35 PM 39.2779 -104.2010 287° West 324 373 16,400 -1,574 Descending FlightAware ADS-B
Fri 08:12:06 PM 39.2905 -104.2560 287° West 319 367 15,700 -1,535 Descending FlightAware ADS-B
Fri 08:12:18 PM 39.2959 -104.2790 287° West 317 365 15,300 -1,875 Descending FlightAware ADS-B
Fri 08:12:22 PM 39.2981 -104.2860 292° West 318 366 15,200 -1,500 Descending FlightAware ADS-B
Fri 08:12:30 PM 39.3035 -104.2980 300° West 319 367 15,000 -1,692 Descending FlightAware ADS-B
Fri 08:13:01 PM 39.3284 -104.3470 303° West 319 367 14,100 -1,672 Descending FlightAware ADS-B
Fri 08:13:31 PM 39.3528 -104.3960 303° West 318 366 13,300 -1,100 Descending FlightAware ADS-B
Fri 08:14:01 PM 39.3770 -104.4440 303° West 315 362 13,000 -500 Descending FlightAware ADS-B
Fri 08:14:31 PM 39.4005 -104.4910 303° West 311 358 12,800 -1,080 Descending FlightAware ADS-B
Fri 08:14:51 PM 39.4164 -104.5220 304° West 316 364 12,100 -1,920 Descending FlightAware ADS-B
Fri 08:14:56 PM 39.4207 -104.5290 308° West 318 366 12,000 -1,636 Descending FlightAware ADS-B
Fri 08:15:02 PM 39.4270 -104.5370 316° Northwest 320 368 11,800 -1,200 Descending FlightAware ADS-B
Fri 08:15:06 PM 39.4312 -104.5410 324° Northwest 321 369 11,800 -1,091 Level FlightAware ADS-B
Fri 08:15:13 PM 39.4405 -104.5490 326° Northwest 320 368 11,600 -1,600 Descending FlightAware ADS-B
Fri 08:15:21 PM 39.4510 -104.5560 333° Northwest 322 371 11,400 -615 Descending FlightAware ADS-B
Fri 08:15:52 PM 39.4921 -104.5780 338° Northwest 303 349 11,200 -590 Descending FlightAware ADS-B
Fri 08:16:22 PM 39.5298 -104.5990 337° Northwest 289 333 10,800 -923 Descending FlightAware ADS-B
Fri 08:16:44 PM 39.5565 -104.6150 335° Northwest 282 325 10,400 -894 Descending FlightAware ADS-B
Fri 08:17:09 PM 39.5858 -104.6310 337° Northwest 275 316 10,100 -667 Descending FlightAware ADS-B
Fri 08:17:20 PM 39.5985 -104.6390 334° Northwest 271 312 10,000 -1,091 Descending FlightAware ADS-B
Fri 08:17:31 PM 39.6110 -104.6460 337° Northwest 271 312 9,700 -1,500 Descending FlightAware ADS-B
Fri 08:17:48 PM 39.6302 -104.6560 338° Northwest 267 307 9,300 -1,304 Descending FlightAware ADS-B
Fri 08:17:54 PM 39.6376 -104.6600 337° Northwest 265 305 9,200 -1,286 Descending FlightAware ADS-B
Fri 08:18:02 PM 39.6479 -104.6620 351° North 264 304 9,000 -1,500 Descending FlightAware ADS-B
Fri 08:18:10 PM 39.6565 -104.6630 355° North 262 302 8,800 -1,714 Descending FlightAware ADS-B
Fri 08:18:16 PM 39.6638 -104.6620 North 261 300 8,600 -1,304 Descending FlightAware ADS-B
Fri 08:18:33 PM 39.6845 -104.6620 360° North 244 281 8,300 -1,273 Descending FlightAware ADS-B
Fri 08:18:49 PM 39.7018 -104.6620 360° North 232 267 7,900 -1,355 Descending FlightAware ADS-B
Fri 08:19:04 PM 39.7178 -104.6620 360° North 224 258 7,600 -1,200 Descending FlightAware ADS-B
Fri 08:19:09 PM 39.7228 -104.6620 360° North 219 252 7,500 -1,143 Descending FlightAware ADS-B
Fri 08:19:25 PM 39.7376 -104.6620 360° North 208 239 7,200 -1,135 Descending FlightAware ADS-B
Fri 08:19:46 PM 39.7574 -104.6620 360° North 189 217 6,800 -1,000 Descending FlightAware ADS-B
Fri 08:20:01 PM 39.7699 -104.6610 North 175 201 6,600 -720 Descending FlightAware ADS-B
Fri 08:20:11 PM 39.7771 -104.6610 360° North 169 194 6,500 -667 Descending FlightAware ADS-B
Fri 08:20:19 PM 39.7838 -104.6610 360° North 168 193 6,400 -1,043 Descending FlightAware ADS-B
Fri 08:20:34 PM 39.7955 -104.6610 360° North 163 188 6,100 -968 Descending FlightAware ADS-B
Fri 08:20:50 PM 39.8070 -104.6610 360° North 161 185 5,900 -774 Descending FlightAware ADS-B
Fri 08:21:05 PM 39.8184 -104.6610 360° North 162 186 5,700 -909 Descending FlightAware ADS-B
Fri 08:21:23 PM 39.8318 -104.6610 360° North 163 188 5,400 -1,000 Descending FlightAware ADS-B

Login

Don't have an account? Register now (free) for customized features, flight alerts, and more!